Time;durP1;ratioP1;P1;durP2;ratioP2;P2;SDS_P1;SDS_P2;PMS_P1;PMS_P2;Temp;Humidity;BMP_temperature;BMP_pressure;BME280_temperature;BME280_humidity;BME280_pressure;Samples;Min_cycle;Max_cycle;Signal;HPM_P1;HPM_P2
2021/01/11 00:02:21;;;;;;;1.80;0.60;;;;;;;19.25;78.09;101623.97;5091093;28;20067;-72
2021/01/11 00:04:47;;;;;;;3.67;0.65;;;;;;;19.23;78.24;101626.66;5073689;28;20101;-71
2021/01/11 00:07:12;;;;;;;1.20;0.60;;;;;;;19.31;78.08;101618.56;5072130;28;20407;-71
2021/01/11 00:09:37;;;;;;;0.65;0.50;;;;;;;19.31;78.31;101619.47;5091180;28;20044;-72
2021/01/11 00:12:03;;;;;;;3.97;0.70;;;;;;;19.32;78.33;101615.00;5090939;28;20523;-72
2021/01/11 00:14:28;;;;;;;1.38;0.50;;;;;;;19.32;78.09;101626.59;5091985;28;20028;-71
2021/01/11 00:16:53;;;;;;;1.10;0.60;;;;;;;19.31;78.21;101608.75;5091515;28;20064;-72
2021/01/11 00:19:19;;;;;;;2.33;0.82;;;;;;;19.26;78.34;101610.59;5072700;28;20693;-70
2021/01/11 00:21:44;;;;;;;3.53;0.77;;;;;;;19.24;78.56;101623.09;5072945;28;20075;-71
2021/01/11 00:24:10;;;;;;;0.90;0.60;;;;;;;19.26;78.21;101615.94;5072876;28;20044;-71
2021/01/11 00:26:35;;;;;;;1.77;0.70;;;;;;;19.25;78.42;101614.16;5069522;28;20046;-71
2021/01/11 00:29:00;;;;;;;2.75;0.82;;;;;;;19.23;78.27;101613.25;5070770;28;20045;-71
2021/01/11 00:31:26;;;;;;;1.20;0.60;;;;;;;19.25;78.70;101621.28;5069222;28;20050;-71
2021/01/11 00:33:51;;;;;;;5.93;0.60;;;;;;;19.25;78.37;101621.28;5069567;28;20131;-70
2021/01/11 00:36:17;;;;;;;0.80;0.50;;;;;;;19.23;78.88;101626.66;5070672;28;20126;-71
2021/01/11 00:38:42;;;;;;;2.13;0.55;;;;;;;19.24;78.47;101625.75;5068864;28;20051;-71
2021/01/11 00:41:07;;;;;;;4.13;0.50;;;;;;;19.26;78.30;101626.66;5069160;28;20036;-71
2021/01/11 00:43:33;;;;;;;3.65;0.50;;;;;;;19.29;78.33;101623.97;5070897;28;20059;-71
2021/01/11 00:45:58;;;;;;;1.75;0.65;;;;;;;19.25;78.15;101623.97;5070513;28;20044;-71
2021/01/11 00:48:23;;;;;;;2.10;0.60;;;;;;;19.24;78.43;101619.50;5068922;28;20051;-71
2021/01/11 00:50:49;;;;;;;1.25;0.60;;;;;;;19.25;77.97;101614.16;5070626;28;20033;-70
2021/01/11 00:53:14;;;;;;;2.30;0.57;;;;;;;19.25;77.98;101600.78;5068458;28;20059;-70
2021/01/11 00:55:39;;;;;;;1.20;0.50;;;;;;;19.23;78.42;101602.56;5069276;28;20059;-70
2021/01/11 00:58:05;;;;;;;1.42;0.52;;;;;;;19.31;78.27;101590.00;5070429;28;20047;-70
2021/01/11 01:00:30;;;;;;;5.40;0.68;;;;;;;19.23;77.91;101591.00;5068593;28;20094;-70
2021/01/11 01:02:55;;;;;;;1.58;0.63;;;;;;;19.29;78.25;101588.28;5069997;28;20067;-71
2021/01/11 01:05:21;;;;;;;1.17;0.50;;;;;;;19.31;77.99;101590.00;5068819;28;20056;-73
2021/01/11 01:07:46;;;;;;;1.20;0.70;;;;;;;19.43;77.68;101587.25;5067765;28;20616;-71
2021/01/11 01:10:12;;;;;;;4.35;0.80;;;;;;;19.42;77.43;101584.59;5068113;28;20032;-71
2021/01/11 01:12:37;;;;;;;13.25;1.23;;;;;;;19.40;77.44;101589.06;5068294;28;20123;-70
2021/01/11 01:15:02;;;;;;;7.50;0.68;;;;;;;19.39;77.40;101595.31;5069102;28;20044;-70
2021/01/11 01:17:28;;;;;;;3.47;0.90;;;;;;;19.35;77.95;101590.91;5070186;28;20056;-71
2021/01/11 01:19:53;;;;;;;4.25;0.60;;;;;;;19.33;77.66;101590.91;5070472;28;20111;-70
2021/01/11 01:22:18;;;;;;;6.47;0.90;;;;;;;19.27;77.77;101596.31;5068900;28;20029;-71
2021/01/11 01:24:45;;;;;;;5.05;1.00;;;;;;;19.27;78.10;101600.75;5070500;28;20036;-70
2021/01/11 01:27:10;;;;;;;2.92;0.95;;;;;;;19.27;78.19;101598.09;5067767;28;20052;-70
2021/01/11 01:29:35;;;;;;;4.72;0.80;;;;;;;19.27;78.07;101601.66;5068750;28;20036;-70
2021/01/11 01:32:01;;;;;;;10.02;0.95;;;;;;;19.25;77.87;101599.88;5069208;28;20086;-71
2021/01/11 01:34:26;;;;;;;2.13;0.90;;;;;;;19.25;78.14;101611.47;5068833;28;20405;-70
2021/01/11 01:36:51;;;;;;;4.20;0.70;;;;;;;19.24;77.96;101620.41;5070410;28;20032;-70
2021/01/11 01:39:17;;;;;;;2.05;0.68;;;;;;;19.23;78.12;101626.66;5068505;28;20044;-70
2021/01/11 01:41:42;;;;;;;9.10;0.75;;;;;;;19.22;78.20;101622.22;5068558;28;20114;-70
2021/01/11 01:44:08;;;;;;;2.20;0.77;;;;;;;19.25;77.91;101630.22;5069860;28;20056;-71
2021/01/11 01:46:33;;;;;;;3.08;0.73;;;;;;;19.25;78.16;101630.22;5070424;28;20029;-71
2021/01/11 01:48:58;;;;;;;1.27;0.70;;;;;;;19.25;78.19;101626.66;5068967;28;20060;-71
2021/01/11 01:51:44;;;;;;;1.77;0.73;;;;;;;19.26;78.39;101634.69;5068659;28;20048;-71
2021/01/11 01:54:09;;;;;;;2.45;0.70;;;;;;;19.27;78.13;101635.56;5068579;28;20047;-71
2021/01/11 01:56:35;;;;;;;2.47;0.80;;;;;;;19.26;78.32;101649.84;5068390;28;20397;-70
2021/01/11 01:59:00;;;;;;;2.88;0.80;;;;;;;19.27;78.31;101649.84;5070051;28;20028;-71
2021/01/11 02:01:25;;;;;;;5.35;0.80;;;;;;;19.29;77.95;101650.75;5069729;28;20095;-70
2021/01/11 02:03:51;;;;;;;3.33;0.70;;;;;;;19.30;78.31;101655.19;5068714;28;20041;-70
2021/01/11 02:06:16;;;;;;;2.97;0.75;;;;;;;19.30;78.11;101657.84;5069634;28;20477;-70
2021/01/11 02:08:41;;;;;;;3.63;0.70;;;;;;;19.29;78.39;101655.22;5068852;28;20672;-70
2021/01/11 02:11:07;;;;;;;1.38;0.73;;;;;;;19.29;78.50;101660.56;5068015;28;20409;-70
2021/01/11 02:13:32;;;;;;;2.55;0.80;;;;;;;19.29;78.30;101668.59;5070883;28;20036;-70
2021/01/11 02:15:57;;;;;;;1.73;0.70;;;;;;;19.29;78.20;101663.25;5072177;28;20032;-70
2021/01/11 02:18:23;;;;;;;2.63;0.70;;;;;;;19.29;78.42;101661.47;5071597;28;20440;-69
2021/01/11 02:20:48;;;;;;;1.05;0.60;;;;;;;19.26;78.44;101649.84;5072950;28;20044;-70
2021/01/11 02:23:13;;;;;;;4.28;0.70;;;;;;;19.26;78.48;101642.72;5071888;28;20408;-71
2021/01/11 02:25:40;;;;;;;1.42;0.60;;;;;;;19.22;78.46;101638.28;5079846;28;20036;-71
2021/01/11 02:28:05;;;;;;;2.05;0.65;;;;;;;19.24;78.13;101636.47;5093264;28;20040;-70
2021/01/11 02:30:31;;;;;;;1.70;0.70;;;;;;;19.26;78.74;101631.09;5075392;28;20044;-71
2021/01/11 02:32:56;;;;;;;1.48;0.70;;;;;;;19.26;78.35;101637.34;5075326;28;20043;-70
2021/01/11 02:35:21;;;;;;;2.40;0.85;;;;;;;19.26;78.09;101636.47;5074946;28;20134;-70
2021/01/11 02:37:47;;;;;;;4.45;0.60;;;;;;;19.24;78.42;101624.88;5075173;28;20040;-70
2021/01/11 02:40:12;;;;;;;4.03;0.90;;;;;;;19.25;78.30;101626.66;5092652;28;20044;-71
2021/01/11 02:42:38;;;;;;;1.38;0.65;;;;;;;19.24;78.19;101627.53;5074744;28;20420;-71
2021/01/11 02:45:03;;;;;;;3.03;0.70;;;;;;;19.23;78.29;101625.78;5092988;28;20052;-72
2021/01/11 02:47:28;;;;;;;1.67;0.60;;;;;;;19.26;78.46;101621.28;5093372;28;20060;-71
2021/01/11 02:49:54;;;;;;;2.20;0.70;;;;;;;19.27;78.41;101627.53;5093032;28;20044;-71
2021/01/11 02:52:19;;;;;;;1.35;0.70;;;;;;;19.27;78.22;101628.44;5073076;28;20077;-71
2021/01/11 02:54:45;;;;;;;4.05;0.60;;;;;;;19.28;78.33;101632.91;5074391;28;20397;-71
2021/01/11 02:57:10;;;;;;;4.88;0.77;;;;;;;19.27;78.00;101631.09;5092942;28;20036;-71
2021/01/11 02:59:35;;;;;;;6.82;0.43;;;;;;;19.28;78.18;101632.91;5075074;28;20413;-71
2021/01/11 03:02:01;;;;;;;1.45;0.60;;;;;;;19.27;78.14;101628.44;5092907;28;20036;-71
2021/01/11 03:04:26;;;;;;;2.88;0.50;;;;;;;19.26;78.33;101637.34;5092534;28;20123;-70
2021/01/11 03:06:51;;;;;;;2.30;0.70;;;;;;;19.29;78.34;101636.47;5074753;28;20508;-71
2021/01/11 03:09:17;;;;;;;0.88;0.50;;;;;;;19.29;78.34;101633.78;5074021;28;20055;-71
2021/01/11 03:11:42;;;;;;;0.93;0.55;;;;;;;19.26;78.18;101628.44;5075010;28;20491;-71
2021/01/11 03:14:08;;;;;;;2.97;0.45;;;;;;;19.26;78.37;101636.47;5074225;28;20048;-71
2021/01/11 03:16:33;;;;;;;1.77;0.60;;;;;;;19.29;78.58;101640.03;5075148;28;20040;-71
2021/01/11 03:18:58;;;;;;;3.40;0.50;;;;;;;19.29;78.15;101634.69;5092797;28;20040;-72
2021/01/11 03:21:24;;;;;;;1.95;0.50;;;;;;;19.29;78.29;101645.38;5074239;28;20118;-72
2021/01/11 03:23:49;;;;;;;0.75;0.55;;;;;;;19.26;78.05;101650.75;5092018;28;20036;-72
2021/01/11 03:26:14;;;;;;;3.28;0.60;;;;;;;19.28;78.07;101646.28;5073553;28;20093;-72
2021/01/11 03:28:40;;;;;;;1.40;0.52;;;;;;;19.27;77.97;101641.81;5092553;28;20025;-72
2021/01/11 03:31:05;;;;;;;1.17;0.50;;;;;;;19.27;77.95;101649.84;5092046;28;20067;-71
2021/01/11 03:33:30;;;;;;;0.52;0.50;;;;;;;19.25;78.05;101645.41;5074305;28;20062;-72
2021/01/11 03:35:56;;;;;;;2.45;0.63;;;;;;;19.26;78.43;101645.38;5074638;28;20084;-71
2021/01/11 03:38:21;;;;;;;4.10;0.40;;;;;;;19.29;78.28;101645.38;5074160;28;20055;-70
2021/01/11 03:40:47;;;;;;;9.23;0.73;;;;;;;19.25;78.32;101642.72;5091736;28;20101;-70
2021/01/11 03:43:12;;;;;;;4.15;0.60;;;;;;;19.25;78.35;101634.69;5073777;28;20624;-71
2021/01/11 03:45:37;;;;;;;3.65;0.55;;;;;;;19.28;78.40;101638.25;5091746;28;20044;-70
2021/01/11 03:48:03;;;;;;;3.50;0.60;;;;;;;19.26;78.40;101637.34;5074053;28;20051;-70
2021/01/11 03:50:28;;;;;;;10.82;0.50;;;;;;;19.25;78.37;101635.56;5091225;28;20415;-70
2021/01/11 03:52:53;;;;;;;18.95;0.70;;;;;;;19.26;78.44;101636.47;5091749;28;20044;-70
2021/01/11 03:55:19;;;;;;;1.52;0.57;;;;;;;19.29;78.56;101645.38;5091166;28;20040;-70
2021/01/11 03:57:44;;;;;;;1.77;0.60;;;;;;;19.27;78.70;101638.25;5092026;28;20054;-70
2021/01/11 04:00:09;;;;;;;0.90;0.40;;;;;;;19.27;78.57;101651.63;5091379;28;20441;-70
2021/01/11 04:02:35;;;;;;;4.47;0.60;;;;;;;19.27;78.79;101657.00;5073381;28;20032;-70
2021/01/11 04:05:00;;;;;;;1.58;0.50;;;;;;;19.27;78.50;101667.69;5073663;28;20061;-70
2021/01/11 04:07:25;;;;;;;1.48;0.50;;;;;;;19.26;78.51;101666.81;5091064;28;20048;-70
2021/01/11 04:09:51;;;;;;;3.30;0.47;;;;;;;19.26;78.59;101677.53;5073142;28;20048;-70
2021/01/11 04:12:16;;;;;;;1.35;0.55;;;;;;;19.26;78.39;101682.00;5072937;28;20036;-70
2021/01/11 04:14:42;;;;;;;1.10;0.50;;;;;;;19.27;78.63;101681.09;5091352;28;20046;-70
2021/01/11 04:17:07;;;;;;;0.82;0.50;;;;;;;19.25;78.55;101678.41;5073032;28;20107;-70
2021/01/11 04:19:32;;;;;;;1.60;0.90;;;;;;;19.24;78.44;101673.94;5073688;28;20396;-70
2021/01/11 04:21:58;;;;;;;1.40;0.60;;;;;;;19.25;78.75;101669.50;5091353;28;20032;-70
2021/01/11 04:24:23;;;;;;;1.25;0.60;;;;;;;19.27;78.79;101673.06;5072593;28;20431;-70
2021/01/11 04:26:48;;;;;;;1.30;0.50;;;;;;;19.25;78.66;101667.69;5072081;28;20040;-70
2021/01/11 04:29:14;;;;;;;1.17;0.70;;;;;;;19.25;78.72;101673.06;5090889;28;20040;-70
2021/01/11 04:31:39;;;;;;;1.00;0.60;;;;;;;19.26;78.41;101668.59;5073109;28;20560;-70
2021/01/11 04:34:04;;;;;;;18.55;0.80;;;;;;;19.26;78.61;101673.94;5072691;28;20051;-71
2021/01/11 04:36:30;;;;;;;2.83;0.60;;;;;;;19.29;78.58;101681.97;5090696;28;20561;-70
2021/01/11 04:38:55;;;;;;;1.10;0.55;;;;;;;19.30;78.55;101684.63;5091046;28;20544;-71
2021/01/11 04:41:21;;;;;;;0.90;0.40;;;;;;;19.29;78.52;101682.88;5090011;28;20450;-70
2021/01/11 04:43:46;;;;;;;1.48;0.60;;;;;;;19.30;78.45;101683.75;5091125;28;20550;-71
2021/01/11 04:46:13;;;;;;;1.80;0.55;;;;;;;19.32;78.54;101679.28;5072756;28;20060;-71
2021/01/11 04:48:38;;;;;;;0.90;0.70;;;;;;;19.31;78.37;101682.84;5090908;28;20739;-70
2021/01/11 04:51:03;;;;;;;2.40;0.60;;;;;;;19.29;78.39;101674.84;5072445;28;20044;-71
2021/01/11 04:53:29;;;;;;;2.35;0.50;;;;;;;19.30;78.29;101673.03;5091241;28;20048;-71
2021/01/11 04:55:54;;;;;;;7.13;0.60;;;;;;;19.31;78.50;101680.16;5072428;28;20039;-71
2021/01/11 04:58:20;;;;;;;2.58;0.60;;;;;;;19.32;78.44;101676.59;5071928;28;20040;-70
2021/01/11 05:00:45;;;;;;;9.98;0.70;;;;;;;19.32;78.50;101679.28;5090199;28;20119;-70
2021/01/11 05:03:10;;;;;;;4.43;0.90;;;;;;;19.30;78.60;101675.69;5090020;28;20040;-70
2021/01/11 05:05:36;;;;;;;6.43;0.55;;;;;;;19.30;78.28;101676.59;5072367;28;20421;-70
2021/01/11 05:08:02;;;;;;;1.10;0.70;;;;;;;19.29;78.64;101672.16;5072994;28;20040;-70
2021/01/11 05:10:27;;;;;;;3.58;0.60;;;;;;;19.29;78.38;101664.13;5071890;28;20033;-70
2021/01/11 05:12:52;;;;;;;2.80;0.60;;;;;;;19.30;78.34;101665.88;5090315;28;20036;-71
2021/01/11 05:15:18;;;;;;;3.03;0.60;;;;;;;19.28;78.78;101667.69;5090239;28;20547;-70
2021/01/11 05:17:44;;;;;;;0.90;0.50;;;;;;;19.29;78.62;101671.28;5090824;28;20557;-71
2021/01/11 05:20:09;;;;;;;1.23;0.55;;;;;;;19.27;78.72;101670.38;5090236;28;20036;-71
2021/01/11 05:22:34;;;;;;;0.88;0.60;;;;;;;19.27;78.73;101678.41;5090255;28;20056;-71
2021/01/11 05:25:00;;;;;;;0.90;0.60;;;;;;;19.27;78.44;101675.75;5072184;28;20047;-71
2021/01/11 05:27:25;;;;;;;1.73;0.52;;;;;;;19.25;78.40;101673.06;5072296;28;20036;-70
2021/01/11 05:29:50;;;;;;;2.88;0.50;;;;;;;19.27;78.33;101681.09;5072682;28;20024;-71
2021/01/11 05:32:16;;;;;;;0.60;0.55;;;;;;;19.26;78.64;101696.25;5071888;28;20055;-70
2021/01/11 05:34:41;;;;;;;1.13;0.60;;;;;;;19.23;78.27;101690.91;5090521;28;20032;-71
2021/01/11 05:37:06;;;;;;;2.00;0.63;;;;;;;19.25;78.56;101690.91;5071447;28;20087;-71
2021/01/11 05:39:32;;;;;;;2.65;0.60;;;;;;;19.25;78.34;101689.13;5089922;28;20036;-71
2021/01/11 05:41:57;;;;;;;3.42;0.88;;;;;;;19.30;78.42;101694.44;5072035;28;20044;-70
2021/01/11 05:44:23;;;;;;;4.00;0.70;;;;;;;19.29;78.72;101698.06;5089507;28;20052;-70
2021/01/11 05:46:48;;;;;;;2.03;0.70;;;;;;;19.27;78.63;101700.72;5090329;28;20577;-70
2021/01/11 05:49:14;;;;;;;3.05;0.90;;;;;;;19.26;78.60;101690.03;5093832;28;20119;-70
2021/01/11 05:51:39;;;;;;;7.03;0.70;;;;;;;19.26;78.79;101695.38;5094563;28;20040;-71
2021/01/11 05:54:05;;;;;;;3.47;0.70;;;;;;;19.26;78.61;101704.28;5093388;28;20055;-70
2021/01/11 05:56:30;;;;;;;2.10;0.70;;;;;;;19.26;78.64;101706.09;5075908;28;20044;-70
2021/01/11 05:58:55;;;;;;;3.55;0.70;;;;;;;19.26;78.77;101706.97;5094466;28;20426;-70
2021/01/11 06:01:21;;;;;;;2.78;0.90;;;;;;;19.31;78.56;101701.59;5075759;28;20036;-71
2021/01/11 06:03:46;;;;;;;12.45;1.10;;;;;;;19.36;78.48;101694.44;5076140;28;20024;-72
2021/01/11 06:06:12;;;;;;;8.10;0.98;;;;;;;19.33;78.69;101694.44;5093565;28;20583;-72
2021/01/11 06:08:37;;;;;;;12.15;1.00;;;;;;;19.31;78.61;101691.75;5075844;28;20036;-71
2021/01/11 06:11:02;;;;;;;6.32;0.70;;;;;;;19.33;78.64;101692.66;5093490;28;20036;-71
2021/01/11 06:13:28;;;;;;;4.35;0.90;;;;;;;19.34;78.47;101693.56;5093368;28;20032;-71
2021/01/11 06:15:53;;;;;;;6.93;0.88;;;;;;;19.31;78.76;101702.47;5094190;28;20039;-70
2021/01/11 06:18:18;;;;;;;11.43;1.30;;;;;;;19.41;78.23;101708.69;5075117;28;20127;-71
2021/01/11 06:20:44;;;;;;;8.48;1.20;;;;;;;19.34;78.60;101704.25;5075065;28;20060;-73
2021/01/11 06:23:11;;;;;;;2.58;0.90;;;;;;;19.32;78.68;101698.91;5075144;28;20039;-71
2021/01/11 06:25:36;;;;;;;31.15;1.00;;;;;;;19.32;78.59;101706.06;5075383;28;20048;-71
2021/01/11 06:28:02;;;;;;;8.07;1.35;;;;;;;19.37;78.85;101714.94;5075715;28;20078;-71
2021/01/11 06:30:27;;;;;;;6.13;0.88;;;;;;;19.35;78.64;101711.41;5075117;28;20093;-71
2021/01/11 06:32:53;;;;;;;9.02;0.93;;;;;;;19.33;78.76;101716.75;5075060;28;20127;-72
2021/01/11 06:35:18;;;;;;;4.45;1.00;;;;;;;19.33;78.84;101724.78;5074681;28;20040;-72
2021/01/11 06:37:43;;;;;;;8.85;1.38;;;;;;;19.34;79.12;101725.69;5074717;28;20393;-71
2021/01/11 06:40:09;;;;;;;9.10;1.10;;;;;;;19.36;78.99;101729.25;5075141;28;20071;-71
2021/01/11 06:42:34;;;;;;;3.97;0.90;;;;;;;19.33;78.97;101734.63;5075538;28;20478;-71
2021/01/11 06:45:00;;;;;;;5.53;0.90;;;;;;;19.33;78.79;101738.19;5093678;28;20048;-72
2021/01/11 06:47:25;;;;;;;9.50;1.35;;;;;;;19.35;78.82;101743.53;5092108;28;20044;-71
2021/01/11 06:49:50;;;;;;;6.78;1.00;;;;;;;19.33;78.71;101740.88;5075053;28;20028;-71
2021/01/11 06:52:16;;;;;;;3.72;1.00;;;;;;;19.33;78.65;101739.97;5074899;28;20086;-72
2021/01/11 06:54:41;;;;;;;7.10;0.93;;;;;;;19.31;78.78;101736.41;5093551;28;20392;-71
2021/01/11 06:57:07;;;;;;;5.38;1.02;;;;;;;19.32;78.85;101748.91;5092352;28;20040;-71
2021/01/11 06:59:32;;;;;;;3.88;1.10;;;;;;;19.32;78.74;101748.91;5074563;28;20098;-72
2021/01/11 07:01:57;;;;;;;1.52;1.00;;;;;;;19.30;78.84;101745.31;5092936;28;20044;-72
2021/01/11 07:04:23;;;;;;;4.65;0.95;;;;;;;19.31;78.69;101748.00;5092575;28;20047;-71
2021/01/11 07:06:48;;;;;;;3.75;1.00;;;;;;;19.29;78.38;101751.59;5074644;28;20036;-71
2021/01/11 07:09:14;;;;;;;3.80;0.75;;;;;;;19.30;79.17;101748.88;5074430;28;20412;-71
2021/01/11 07:11:39;;;;;;;4.13;0.98;;;;;;;19.31;78.73;101744.44;5092983;28;20028;-70
2021/01/11 07:14:04;;;;;;;3.20;0.88;;;;;;;19.30;78.79;101748.88;5092358;28;20509;-72
2021/01/11 07:16:30;;;;;;;2.72;0.80;;;;;;;19.30;78.56;101738.19;5092360;28;20036;-71
2021/01/11 07:18:56;;;;;;;2.45;0.80;;;;;;;19.31;78.78;101747.09;5092355;28;20399;-70
2021/01/11 07:21:22;;;;;;;6.03;1.00;;;;;;;19.32;78.35;101754.25;5091916;28;20074;-70
2021/01/11 07:23:47;;;;;;;4.10;0.90;;;;;;;19.33;78.42;101762.28;5092626;28;20028;-70
2021/01/11 07:26:13;;;;;;;6.35;1.05;;;;;;;19.33;78.80;101761.41;5073048;28;20077;-70
2021/01/11 07:28:38;;;;;;;2.97;1.10;;;;;;;19.32;78.36;101764.97;5073957;28;20043;-70
2021/01/11 07:31:03;;;;;;;2.78;1.25;;;;;;;19.33;78.57;101764.97;5092347;28;20043;-69
2021/01/11 07:33:29;;;;;;;7.28;1.20;;;;;;;19.32;78.60;101768.53;5091825;28;20047;-69
2021/01/11 07:35:54;;;;;;;3.08;1.20;;;;;;;19.31;78.39;101771.22;5073622;28;20524;-69
2021/01/11 07:38:19;;;;;;;12.95;1.58;;;;;;;19.32;78.70;101767.63;5091066;28;20044;-69
2021/01/11 07:40:45;;;;;;;6.80;1.40;;;;;;;19.32;78.29;101771.22;5074106;28;20044;-69
2021/01/11 07:43:10;;;;;;;3.40;1.35;;;;;;;19.32;78.46;101779.25;5073235;28;20028;-69
2021/01/11 07:45:36;;;;;;;1.35;1.00;;;;;;;19.31;78.50;101776.56;5091894;28;20040;-69
2021/01/11 07:48:01;;;;;;;2.38;1.30;;;;;;;19.31;78.28;101781.91;5091430;28;20040;-69
2021/01/11 07:50:26;;;;;;;5.30;1.40;;;;;;;19.31;78.49;101784.59;5090617;28;20028;-69
2021/01/11 07:52:52;;;;;;;2.63;1.42;;;;;;;19.30;78.28;101794.41;5091772;28;20637;-69
2021/01/11 07:55:17;;;;;;;3.42;1.27;;;;;;;19.33;78.26;101793.53;5072774;28;20085;-69
2021/01/11 07:57:43;;;;;;;2.45;1.15;;;;;;;19.33;78.30;101804.25;5073266;28;20059;-68
2021/01/11 08:00:09;;;;;;;2.53;1.38;;;;;;;19.32;78.20;101805.13;5073156;28;20032;-70
2021/01/11 08:02:35;;;;;;;12.48;1.38;;;;;;;19.41;78.51;101810.47;5073271;28;20052;-69
2021/01/11 08:05:00;;;;;;;15.48;2.25;;;;;;;19.42;78.37;101814.94;5090754;28;20090;-70
2021/01/11 08:07:26;;;;;;;9.85;2.05;;;;;;;19.37;78.56;101819.38;5072509;28;20388;-71
2021/01/11 08:09:51;;;;;;;10.70;1.70;;;;;;;19.39;78.43;101810.47;5090638;28;20131;-72
2021/01/11 08:12:17;;;;;;;20.35;1.95;;;;;;;19.37;78.60;101809.56;5073021;28;20063;-70
2021/01/11 08:14:42;;;;;;;10.85;1.45;;;;;;;19.36;78.43;101809.59;5091654;28;20036;-71
2021/01/11 08:17:08;;;;;;;17.13;1.70;;;;;;;19.34;78.51;101812.28;5091193;28;20055;-73
2021/01/11 08:19:33;;;;;;;13.00;1.80;;;;;;;19.36;78.70;101804.25;5069151;28;20051;-74
2021/01/11 08:21:58;;;;;;;9.23;2.08;;;;;;;19.36;78.57;101810.47;5086766;28;20196;-72
2021/01/11 08:24:24;;;;;;;15.68;2.28;;;;;;;19.43;78.51;101809.53;5087737;28;20182;-71
2021/01/11 08:26:49;;;;;;;9.30;3.20;;;;;;;19.44;77.79;101813.13;5067211;28;20040;-70
2021/01/11 08:29:15;;;;;;;16.95;3.35;;;;;;;19.39;77.73;101805.09;5068533;28;20059;-72
2021/01/11 08:31:40;;;;;;;6.43;3.83;;;;;;;19.37;77.77;101806.00;5067697;28;20063;-71
2021/01/11 08:34:05;;;;;;;15.85;4.75;;;;;;;19.43;77.76;101798.81;5066925;28;20036;-72
2021/01/11 08:36:31;;;;;;;28.73;6.00;;;;;;;19.46;77.83;101795.28;5066490;28;20078;-70
2021/01/11 08:38:56;;;;;;;19.48;6.25;;;;;;;19.40;77.84;101797.97;5065322;28;20040;-70
2021/01/11 08:41:21;;;;;;;15.80;6.00;;;;;;;19.34;77.91;101798.00;5067924;28;20079;-69
2021/01/11 08:43:47;;;;;;;21.02;7.13;;;;;;;19.35;78.28;101795.31;5066043;28;20074;-71
2021/01/11 08:46:12;;;;;;;14.93;7.18;;;;;;;19.33;78.10;101797.09;5068265;28;20048;-71
2021/01/11 08:48:37;;;;;;;15.68;7.90;;;;;;;19.33;78.32;101798.88;5064899;28;20048;-72
2021/01/11 08:51:03;;;;;;;17.65;8.90;;;;;;;19.33;78.21;101798.88;5066968;28;20051;-72
2021/01/11 08:53:28;;;;;;;24.13;10.55;;;;;;;19.30;78.26;101801.56;5067592;28;20036;-70
2021/01/11 08:55:54;;;;;;;17.58;10.18;;;;;;;19.31;78.34;101795.31;5064596;28;20055;-73
2021/01/11 08:58:19;;;;;;;20.23;10.65;;;;;;;19.32;78.48;101792.63;5067420;28;20076;-71
2021/01/11 09:00:45;;;;;;;19.33;11.25;;;;;;;19.31;78.21;101796.19;5066873;28;20037;-69
2021/01/11 09:03:10;;;;;;;26.42;12.82;;;;;;;19.32;78.35;101798.00;5066937;28;20131;-70
2021/01/11 09:05:35;;;;;;;25.05;13.73;;;;;;;19.31;78.56;101796.19;5065869;28;20041;-70
2021/01/11 09:08:01;;;;;;;23.10;15.52;;;;;;;19.33;78.09;101798.88;5067282;28;20037;-70
2021/01/11 09:10:31;;;;;;;19.35;14.90;;;;;;;19.32;78.35;101789.06;5065439;28;20044;-72
2021/01/11 09:12:57;;;;;;;24.15;14.90;;;;;;;19.37;78.18;101789.94;5066438;28;20037;-72
2021/01/11 09:15:22;;;;;;;34.55;16.55;;;;;;;19.36;78.21;101791.72;5066066;28;20036;-71
2021/01/11 09:17:48;;;;;;;28.50;15.82;;;;;;;19.34;78.33;101790.84;5067655;28;20040;-71
2021/01/11 09:20:13;;;;;;;25.67;17.63;;;;;;;19.32;78.21;101779.25;5068028;28;20477;-71
2021/01/11 09:22:42;;;;;;;24.33;17.92;;;;;;;19.30;78.43;101775.66;5067514;28;20037;-71
2021/01/11 09:25:07;;;;;;;25.58;18.77;;;;;;;19.31;78.63;101773.88;5069740;28;20045;-71
2021/01/11 09:27:32;;;;;;;29.20;19.40;;;;;;;19.34;78.75;101771.22;5085313;28;20041;-70
2021/01/11 09:29:58;;;;;;;28.63;19.02;;;;;;;19.33;78.26;101774.78;5084980;28;20127;-70
2021/01/11 09:32:23;;;;;;;29.48;18.80;;;;;;;19.32;78.53;101767.63;5086495;28;20127;-70
2021/01/11 09:34:49;;;;;;;28.02;19.20;;;;;;;19.30;78.05;101775.66;5087134;28;20067;-70
2021/01/11 09:37:14;;;;;;;28.20;19.60;;;;;;;19.30;78.10;101769.44;5086969;28;20435;-69
2021/01/11 09:39:40;;;;;;;32.55;20.45;;;;;;;19.29;78.34;101760.53;5070232;28;20094;-74
2021/01/11 09:42:05;;;;;;;29.38;21.55;;;;;;;19.27;78.29;101762.31;5087447;28;20162;-71
2021/01/11 09:44:31;;;;;;;29.52;21.65;;;;;;;19.30;78.44;101756.03;5087950;28;20047;-69
2021/01/11 09:46:57;;;;;;;32.15;21.02;;;;;;;19.29;78.07;101748.94;5087754;28;20131;-70
2021/01/11 09:49:22;;;;;;;30.13;20.75;;;;;;;19.30;78.32;101745.31;5068742;28;20064;-70
2021/01/11 09:51:48;;;;;;;31.05;21.13;;;;;;;19.29;78.35;101735.53;5070093;28;20478;-70
2021/01/11 09:54:13;;;;;;;28.02;21.88;;;;;;;19.30;78.32;101734.63;5087104;28;20492;-72
2021/01/11 09:56:38;;;;;;;33.45;21.77;;;;;;;19.30;78.06;101737.28;5088444;28;20366;-72
2021/01/11 09:59:04;;;;;;;28.83;20.55;;;;;;;19.30;78.13;101734.63;5066563;28;20092;-70
2021/01/11 10:01:29;;;;;;;25.88;21.05;;;;;;;19.28;78.20;101734.66;5069476;28;20093;-71
2021/01/11 10:03:55;;;;;;;27.67;21.23;;;;;;;19.29;78.00;101731.06;5087126;28;20036;-71
2021/01/11 10:06:20;;;;;;;32.63;21.27;;;;;;;19.28;78.19;101726.59;5069587;28;20040;-71
2021/01/11 10:08:45;;;;;;;28.30;21.50;;;;;;;19.30;78.12;101721.22;5087853;28;20047;-69
2021/01/11 10:11:11;;;;;;;30.17;20.98;;;;;;;19.27;78.15;101714.13;5087606;28;20085;-70
2021/01/11 10:13:36;;;;;;;32.25;22.50;;;;;;;19.30;78.26;101715.88;5088173;28;20583;-72
2021/01/11 10:16:01;;;;;;;31.77;21.02;;;;;;;19.30;78.03;101707.84;5087447;28;20048;-72
2021/01/11 10:18:27;;;;;;;27.38;20.10;;;;;;;19.30;78.10;101699.81;5087557;28;20043;-70
2021/01/11 10:20:52;;;;;;;28.55;20.75;;;;;;;19.29;78.08;101690.03;5069805;28;20446;-71
2021/01/11 10:23:17;;;;;;;29.58;21.55;;;;;;;19.32;78.05;101689.97;5087345;28;20040;-71
2021/01/11 10:25:43;;;;;;;28.05;20.73;;;;;;;19.32;77.71;101690.88;5065648;28;20090;-72
2021/01/11 10:28:08;;;;;;;41.10;21.70;;;;;;;19.30;77.92;101681.06;5067093;28;20040;-72
2021/01/11 10:30:33;;;;;;;40.97;21.80;;;;;;;19.33;77.94;101689.09;5066764;28;20106;-72
2021/01/11 10:32:59;;;;;;;40.78;21.73;;;;;;;19.35;77.85;101680.16;5067200;28;20098;-72
2021/01/11 10:35:24;;;;;;;32.42;21.25;;;;;;;19.34;77.77;101677.47;5070038;28;20094;-74
2021/01/11 10:37:50;;;;;;;36.95;21.40;;;;;;;19.30;77.64;101675.69;5070951;28;20461;-72
2021/01/11 10:40:15;;;;;;;44.47;20.15;;;;;;;19.31;77.70;101669.44;5070079;28;20134;-73
2021/01/11 10:42:40;;;;;;;38.72;21.13;;;;;;;19.31;77.65;101665.00;5071217;28;20036;-73
2021/01/11 10:45:06;;;;;;;30.75;19.13;;;;;;;19.32;77.77;101663.19;5071242;28;20036;-76
2021/01/11 10:47:31;;;;;;;38.67;18.88;;;;;;;19.33;77.73;101671.25;5071501;28;20033;-73
2021/01/11 10:49:56;;;;;;;38.17;19.45;;;;;;;19.34;77.45;101669.44;5071321;28;20028;-72
2021/01/11 10:52:22;;;;;;;38.38;19.08;;;;;;;19.36;77.70;101659.63;5070002;28;20040;-72
2021/01/11 10:54:47;;;;;;;38.10;17.83;;;;;;;19.44;77.46;101668.47;5069403;28;20029;-70
2021/01/11 10:57:12;;;;;;;43.47;18.52;;;;;;;19.45;77.27;101665.81;5067952;28;20055;-70
2021/01/11 10:59:38;;;;;;;52.30;16.67;;;;;;;19.45;77.38;101665.81;5070896;28;20492;-73
2021/01/11 11:02:03;;;;;;;60.40;16.17;;;;;;;19.40;77.81;101648.88;5068748;28;20151;-69
2021/01/11 11:04:29;;;;;;;34.33;15.38;;;;;;;19.39;77.31;101647.09;5070053;28;20606;-70
2021/01/11 11:06:54;;;;;;;31.27;14.88;;;;;;;19.38;77.54;101648.00;5070380;28;20146;-69
2021/01/11 11:09:19;;;;;;;38.30;14.70;;;;;;;19.42;77.48;101644.41;5067183;28;20049;-70
2021/01/11 11:11:45;;;;;;;41.83;14.07;;;;;;;19.40;77.78;101640.84;5069667;28;20504;-70
2021/01/11 11:14:10;;;;;;;32.55;13.82;;;;;;;19.38;77.35;101634.59;5068181;28;20032;-71